Main page
METAR-TAF:

METAR-TAF

Airports :

Ireland West Airport Knock

Knock, Ireland

latitude: 53-54-37N, longitude: 008-49-05W, elevation: 203 m

Current weather observation

The report was made 33 minutes ago, at 17:00 UTC
Wind 15 kt from the West
Temperature 7°C
Humidity 70%
Pressure 1023 hPa
Visibility 10 km or more
Few clouds at a height of 1600 ft
Scattered clouds at a height of 4400 ft
Broken clouds at a height of 30000 ft

METAR: EIKN 221700Z 26015KT 9999 FEW016 SCT044 BKN300 07/02 Q1023 NOSIG

Time: 17:33 (17:33 UTC)

Forecast

The report was made 6 hours and 33 minutes ago, at 11:00 UTC
Forecast valid from 22 at 12 UTC to 23 at 12 UTC
Wind 15 kt from the West with gusts up to 26 kt
Visibility 10 km or more
Scattered clouds at a height of 2500 ft
Becoming
from 22 at 16 UTC to 22 at 18 UTC
Wind 10 kt from the West
Becoming
from 22 at 21 UTC to 22 at 24 UTC
Wind 7 kt from the West/Southwest

TAF: EIKN 221100Z 2212/2312 26015G26KT 9999 SCT025 BECMG 2216/2218 27010KT BECMG 2221/2224 24007KT

Weather observations and forecasts of more than 4000 airports (METAR and TAF reports).

The available stations are represented by yellow and red dots on the map.

Hover mouse over dot to see the name of the station.

Then click to see weather observations and forecasts.

To change the map : click on the green buttons with a black cross to zoom in, on the green button with a dash to zoom out, or on the green arrows for adjacent maps.


METAR-TAF: